sensor_id;sensor_type;location;lat;lon;timestamp;temperature;humidity
65040;HTU21D;51606;45.000;38.612;2023-10-31T02:32:06;4.33;73.80
65040;HTU21D;51606;45.000;38.612;2023-10-31T02:34:34;4.29;73.88
65040;HTU21D;51606;45.000;38.612;2023-10-31T02:37:01;4.30;74.05
65040;HTU21D;51606;45.000;38.612;2023-10-31T02:39:27;4.45;73.89
65040;HTU21D;51606;45.000;38.612;2023-10-31T02:41:54;4.50;73.60
65040;HTU21D;51606;45.000;38.612;2023-10-31T02:44:21;4.52;73.64
65040;HTU21D;51606;45.000;38.612;2023-10-31T02:46:48;4.51;73.63
65040;HTU21D;51606;45.000;38.612;2023-10-31T02:49:14;4.50;73.71
65040;HTU21D;51606;45.000;38.612;2023-10-31T02:51:41;4.51;73.75
65040;HTU21D;51606;45.000;38.612;2023-10-31T02:54:08;4.54;73.80
65040;HTU21D;51606;45.000;38.612;2023-10-31T02:56:36;4.65;73.71
65040;HTU21D;51606;45.000;38.612;2023-10-31T02:59:04;4.75;73.57
65040;HTU21D;51606;45.000;38.612;2023-10-31T03:01:31;4.84;73.62
65040;HTU21D;51606;45.000;38.612;2023-10-31T03:03:59;4.96;73.43
65040;HTU21D;51606;45.000;38.612;2023-10-31T03:06:28;5.05;73.49
65040;HTU21D;51606;45.000;38.612;2023-10-31T03:08:55;5.11;73.45
65040;HTU21D;51606;45.000;38.612;2023-10-31T03:11:25;5.20;73.52
65040;HTU21D;51606;45.000;38.612;2023-10-31T03:13:54;5.21;73.44
65040;HTU21D;51606;45.000;38.612;2023-10-31T03:16:22;5.24;73.62
65040;HTU21D;51606;45.000;38.612;2023-10-31T03:18:49;5.30;73.61
65040;HTU21D;51606;45.000;38.612;2023-10-31T03:21:17;5.34;73.73
65040;HTU21D;51606;45.000;38.612;2023-10-31T03:23:48;5.41;73.72
65040;HTU21D;51606;45.000;38.612;2023-10-31T03:26:17;5.45;73.64
65040;HTU21D;51606;45.000;38.612;2023-10-31T03:28:44;5.43;73.70
65040;HTU21D;51606;45.000;38.612;2023-10-31T03:31:12;5.47;73.82
65040;HTU21D;51606;45.000;38.612;2023-10-31T03:33:40;5.49;73.85
65040;HTU21D;51606;45.000;38.612;2023-10-31T03:36:08;5.51;73.94
65040;HTU21D;51606;45.000;38.612;2023-10-31T03:38:35;5.50;73.94
65040;HTU21D;51606;45.000;38.612;2023-10-31T03:41:03;5.47;74.06
65040;HTU21D;51606;45.000;38.612;2023-10-31T03:43:31;5.48;74.20
65040;HTU21D;51606;45.000;38.612;2023-10-31T03:45:57;5.53;74.18
65040;HTU21D;51606;45.000;38.612;2023-10-31T03:48:25;5.53;74.20
65040;HTU21D;51606;45.000;38.612;2023-10-31T03:50:53;5.59;74.25
65040;HTU21D;51606;45.000;38.612;2023-10-31T03:53:19;5.59;74.26
65040;HTU21D;51606;45.000;38.612;2023-10-31T03:55:46;5.60;74.30
65040;HTU21D;51606;45.000;38.612;2023-10-31T03:58:12;5.62;74.34
65040;HTU21D;51606;45.000;38.612;2023-10-31T04:00:39;5.62;74.34
65040;HTU21D;51606;45.000;38.612;2023-10-31T04:03:08;5.60;74.38
65040;HTU21D;51606;45.000;38.612;2023-10-31T04:05:35;5.57;74.46
65040;HTU21D;51606;45.000;38.612;2023-10-31T04:08:02;5.54;74.56
65040;HTU21D;51606;45.000;38.612;2023-10-31T04:10:29;5.50;74.66
65040;HTU21D;51606;45.000;38.612;2023-10-31T04:12:55;5.49;74.72
65040;HTU21D;51606;45.000;38.612;2023-10-31T04:15:22;5.43;74.84
65040;HTU21D;51606;45.000;38.612;2023-10-31T04:17:49;5.43;74.86
65040;HTU21D;51606;45.000;38.612;2023-10-31T04:20:15;5.43;74.85
65040;HTU21D;51606;45.000;38.612;2023-10-31T04:22:41;5.46;74.86
65040;HTU21D;51606;45.000;38.612;2023-10-31T04:25:08;5.51;74.83
65040;HTU21D;51606;45.000;38.612;2023-10-31T04:27:35;5.59;74.84
65040;HTU21D;51606;45.000;38.612;2023-10-31T04:30:02;5.69;74.75
65040;HTU21D;51606;45.000;38.612;2023-10-31T04:32:28;5.84;74.61
65040;HTU21D;51606;45.000;38.612;2023-10-31T04:34:55;5.96;74.54
65040;HTU21D;51606;45.000;38.612;2023-10-31T04:37:22;6.16;74.51
65040;HTU21D;51606;45.000;38.612;2023-10-31T04:39:49;6.31;74.30
65040;HTU21D;51606;45.000;38.612;2023-10-31T04:42:16;6.55;74.20
65040;HTU21D;51606;45.000;38.612;2023-10-31T04:44:43;6.82;73.95
65040;HTU21D;51606;45.000;38.612;2023-10-31T04:47:10;7.10;73.61
65040;HTU21D;51606;45.000;38.612;2023-10-31T04:49:36;7.34;73.38
65040;HTU21D;51606;45.000;38.612;2023-10-31T04:52:03;7.62;73.08
65040;HTU21D;51606;45.000;38.612;2023-10-31T04:54:30;7.92;72.75
65040;HTU21D;51606;45.000;38.612;2023-10-31T04:56:57;8.26;72.54
65040;HTU21D;51606;45.000;38.612;2023-10-31T04:59:23;8.76;72.06
65040;HTU21D;51606;45.000;38.612;2023-10-31T05:01:50;9.37;71.49
65040;HTU21D;51606;45.000;38.612;2023-10-31T05:04:18;9.98;70.89
65040;HTU21D;51606;45.000;38.612;2023-10-31T05:06:45;10.27;70.57
65040;HTU21D;51606;45.000;38.612;2023-10-31T05:09:12;10.41;70.77
65040;HTU21D;51606;45.000;38.612;2023-10-31T05:11:39;10.75;71.00
65040;HTU21D;51606;45.000;38.612;2023-10-31T05:14:08;11.23;70.57
65040;HTU21D;51606;45.000;38.612;2023-10-31T05:16:40;11.59;70.33
65040;HTU21D;51606;45.000;38.612;2023-10-31T05:19:07;11.90;70.35
65040;HTU21D;51606;45.000;38.612;2023-10-31T05:21:33;12.35;70.31
65040;HTU21D;51606;45.000;38.612;2023-10-31T05:24:00;13.00;70.00
65040;HTU21D;51606;45.000;38.612;2023-10-31T05:26:27;13.84;69.33
65040;HTU21D;51606;45.000;38.612;2023-10-31T05:28:57;14.72;68.64
65040;HTU21D;51606;45.000;38.612;2023-10-31T05:31:25;15.52;68.17
65040;HTU21D;51606;45.000;38.612;2023-10-31T05:33:52;16.20;68.06
65040;HTU21D;51606;45.000;38.612;2023-10-31T05:36:24;16.82;67.98
65040;HTU21D;51606;45.000;38.612;2023-10-31T05:38:51;17.45;67.87
65040;HTU21D;51606;45.000;38.612;2023-10-31T05:41:18;17.87;68.13
65040;HTU21D;51606;45.000;38.612;2023-10-31T05:43:45;18.24;68.42
65040;HTU21D;51606;45.000;38.612;2023-10-31T05:46:12;18.54;68.73
65040;HTU21D;51606;45.000;38.612;2023-10-31T05:48:44;18.76;69.27
65040;HTU21D;51606;45.000;38.612;2023-10-31T05:51:13;18.84;70.12
65040;HTU21D;51606;45.000;38.612;2023-10-31T05:53:41;19.10;70.48
65040;HTU21D;51606;45.000;38.612;2023-10-31T05:56:09;19.38;70.66
65040;HTU21D;51606;45.000;38.612;2023-10-31T05:58:37;19.83;70.31
65040;HTU21D;51606;45.000;38.612;2023-10-31T06:01:04;20.14;69.85
65040;HTU21D;51606;45.000;38.612;2023-10-31T06:03:35;20.33;69.55
65040;HTU21D;51606;45.000;38.612;2023-10-31T06:06:02;20.35;69.14
65040;HTU21D;51606;45.000;38.612;2023-10-31T06:08:28;20.05;68.69
65040;HTU21D;51606;45.000;38.612;2023-10-31T06:10:58;19.73;68.46
65040;HTU21D;51606;45.000;38.612;2023-10-31T06:13:26;19.61;68.61
65040;HTU21D;51606;45.000;38.612;2023-10-31T06:15:56;20.09;67.82
65040;HTU21D;51606;45.000;38.612;2023-10-31T06:18:24;20.78;66.64
65040;HTU21D;51606;45.000;38.612;2023-10-31T06:20:50;21.39;65.72
65040;HTU21D;51606;45.000;38.612;2023-10-31T06:23:17;22.04;64.92
65040;HTU21D;51606;45.000;38.612;2023-10-31T06:25:44;22.81;63.90
65040;HTU21D;51606;45.000;38.612;2023-10-31T06:28:10;23.67;62.71
65040;HTU21D;51606;45.000;38.612;2023-10-31T06:30:36;24.33;61.64
65040;HTU21D;51606;45.000;38.612;2023-10-31T06:33:03;24.84;61.09
65040;HTU21D;51606;45.000;38.612;2023-10-31T06:35:30;25.37;60.29
65040;HTU21D;51606;45.000;38.612;2023-10-31T06:37:56;25.90;59.67
65040;HTU21D;51606;45.000;38.612;2023-10-31T06:40:24;26.54;58.48
65040;HTU21D;51606;45.000;38.612;2023-10-31T06:42:51;26.93;58.10
65040;HTU21D;51606;45.000;38.612;2023-10-31T06:45:17;27.36;57.44
65040;HTU21D;51606;45.000;38.612;2023-10-31T06:47:44;27.56;57.16
65040;HTU21D;51606;45.000;38.612;2023-10-31T06:50:11;28.00;56.47
65040;HTU21D;51606;45.000;38.612;2023-10-31T06:52:37;28.46;55.50
65040;HTU21D;51606;45.000;38.612;2023-10-31T06:55:04;28.76;54.78
65040;HTU21D;51606;45.000;38.612;2023-10-31T06:57:31;29.19;53.88
65040;HTU21D;51606;45.000;38.612;2023-10-31T06:59:58;29.57;53.07
65040;HTU21D;51606;45.000;38.612;2023-10-31T07:02:25;29.92;52.48
65040;HTU21D;51606;45.000;38.612;2023-10-31T07:04:52;30.32;51.76
65040;HTU21D;51606;45.000;38.612;2023-10-31T07:07:18;30.54;51.20
65040;HTU21D;51606;45.000;38.612;2023-10-31T07:09:45;30.66;51.04
65040;HTU21D;51606;45.000;38.612;2023-10-31T07:12:12;30.90;50.57
65040;HTU21D;51606;45.000;38.612;2023-10-31T07:14:39;30.86;50.56
65040;HTU21D;51606;45.000;38.612;2023-10-31T07:17:05;30.99;50.24
65040;HTU21D;51606;45.000;38.612;2023-10-31T07:19:32;31.02;49.93
65040;HTU21D;51606;45.000;38.612;2023-10-31T07:21:58;31.13;49.60
65040;HTU21D;51606;45.000;38.612;2023-10-31T07:24:25;31.26;49.18
65040;HTU21D;51606;45.000;38.612;2023-10-31T07:26:54;31.42;48.44
65040;HTU21D;51606;45.000;38.612;2023-10-31T07:29:21;31.53;48.12
65040;HTU21D;51606;45.000;38.612;2023-10-31T07:31:48;31.59;47.86
65040;HTU21D;51606;45.000;38.612;2023-10-31T07:34:15;31.68;47.45
65040;HTU21D;51606;45.000;38.612;2023-10-31T07:36:42;31.74;47.23
65040;HTU21D;51606;45.000;38.612;2023-10-31T07:39:08;31.71;47.18
65040;HTU21D;51606;45.000;38.612;2023-10-31T07:41:34;31.84;46.79
65040;HTU21D;51606;45.000;38.612;2023-10-31T07:44:01;31.67;46.78
65040;HTU21D;51606;45.000;38.612;2023-10-31T07:46:28;31.60;46.50
65040;HTU21D;51606;45.000;38.612;2023-10-31T07:48:54;31.44;46.59
65040;HTU21D;51606;45.000;38.612;2023-10-31T07:51:20;31.43;46.37
65040;HTU21D;51606;45.000;38.612;2023-10-31T07:53:48;31.49;45.90
65040;HTU21D;51606;45.000;38.612;2023-10-31T07:56:18;31.52;45.55
65040;HTU21D;51606;45.000;38.612;2023-10-31T07:58:49;31.52;45.45
65040;HTU21D;51606;45.000;38.612;2023-10-31T08:01:20;31.76;44.91
65040;HTU21D;51606;45.000;38.612;2023-10-31T08:03:47;31.85;44.65
65040;HTU21D;51606;45.000;38.612;2023-10-31T08:06:14;31.81;44.56
65040;HTU21D;51606;45.000;38.612;2023-10-31T08:08:41;31.95;44.36
65040;HTU21D;51606;45.000;38.612;2023-10-31T08:11:09;32.00;44.08
65040;HTU21D;51606;45.000;38.612;2023-10-31T08:13:39;31.89;44.10
65040;HTU21D;51606;45.000;38.612;2023-10-31T08:16:06;31.75;44.34
65040;HTU21D;51606;45.000;38.612;2023-10-31T08:18:34;31.92;43.92
65040;HTU21D;51606;45.000;38.612;2023-10-31T08:21:01;31.85;43.72
65040;HTU21D;51606;45.000;38.612;2023-10-31T08:23:28;31.71;43.72
65040;HTU21D;51606;45.000;38.612;2023-10-31T08:25:55;31.59;43.88
65040;HTU21D;51606;45.000;38.612;2023-10-31T08:28:23;31.83;43.37
65040;HTU21D;51606;45.000;38.612;2023-10-31T08:30:49;31.93;43.21
65040;HTU21D;51606;45.000;38.612;2023-10-31T08:33:16;31.85;43.04
65040;HTU21D;51606;45.000;38.612;2023-10-31T08:35:44;31.71;43.07
65040;HTU21D;51606;45.000;38.612;2023-10-31T08:38:11;31.44;43.13
65040;HTU21D;51606;45.000;38.612;2023-10-31T08:40:38;31.42;42.98
65040;HTU21D;51606;45.000;38.612;2023-10-31T08:43:04;31.15;43.00
65040;HTU21D;51606;45.000;38.612;2023-10-31T08:45:33;31.20;42.94
65040;HTU21D;51606;45.000;38.612;2023-10-31T08:48:00;31.23;42.74
65040;HTU21D;51606;45.000;38.612;2023-10-31T08:50:27;31.33;42.62
65040;HTU21D;51606;45.000;38.612;2023-10-31T08:52:54;31.13;42.60
65040;HTU21D;51606;45.000;38.612;2023-10-31T08:55:20;30.91;42.90
65040;HTU21D;51606;45.000;38.612;2023-10-31T08:57:47;30.84;42.99
65040;HTU21D;51606;45.000;38.612;2023-10-31T09:00:15;30.67;43.26
65040;HTU21D;51606;45.000;38.612;2023-10-31T09:02:42;30.69;43.25
65040;HTU21D;51606;45.000;38.612;2023-10-31T09:05:09;30.60;43.42
65040;HTU21D;51606;45.000;38.612;2023-10-31T09:07:36;30.59;43.40
65040;HTU21D;51606;45.000;38.612;2023-10-31T09:10:03;30.67;43.32
65040;HTU21D;51606;45.000;38.612;2023-10-31T09:12:31;30.67;43.11
65040;HTU21D;51606;45.000;38.612;2023-10-31T09:14:58;30.51;43.39
65040;HTU21D;51606;45.000;38.612;2023-10-31T09:17:24;30.44;43.20
65040;HTU21D;51606;45.000;38.612;2023-10-31T09:19:51;30.20;43.39
65040;HTU21D;51606;45.000;38.612;2023-10-31T09:22:18;30.32;43.27
65040;HTU21D;51606;45.000;38.612;2023-10-31T09:24:45;30.39;43.12
65040;HTU21D;51606;45.000;38.612;2023-10-31T09:27:11;30.41;43.06
65040;HTU21D;51606;45.000;38.612;2023-10-31T09:29:38;30.44;42.85
65040;HTU21D;51606;45.000;38.612;2023-10-31T09:32:05;30.10;42.93
65040;HTU21D;51606;45.000;38.612;2023-10-31T09:34:36;29.74;42.96
65040;HTU21D;51606;45.000;38.612;2023-10-31T09:37:03;29.65;43.43
65040;HTU21D;51606;45.000;38.612;2023-10-31T09:39:29;29.75;43.12
65040;HTU21D;51606;45.000;38.612;2023-10-31T09:41:56;29.71;42.82
65040;HTU21D;51606;45.000;38.612;2023-10-31T09:44:23;29.44;42.51
65040;HTU21D;51606;45.000;38.612;2023-10-31T09:46:51;28.82;42.48
65040;HTU21D;51606;45.000;38.612;2023-10-31T09:49:19;28.16;42.96
65040;HTU21D;51606;45.000;38.612;2023-10-31T09:51:47;27.73;42.97
65040;HTU21D;51606;45.000;38.612;2023-10-31T09:54:15;27.37;43.11
65040;HTU21D;51606;45.000;38.612;2023-10-31T09:56:43;26.97;43.11
65040;HTU21D;51606;45.000;38.612;2023-10-31T09:59:09;26.57;43.25
65040;HTU21D;51606;45.000;38.612;2023-10-31T10:01:36;26.26;43.33
65040;HTU21D;51606;45.000;38.612;2023-10-31T10:04:03;26.05;43.39
65040;HTU21D;51606;45.000;38.612;2023-10-31T10:06:30;25.87;43.44
65040;HTU21D;51606;45.000;38.612;2023-10-31T10:08:56;25.68;43.51
65040;HTU21D;51606;45.000;38.612;2023-10-31T10:11:23;25.56;43.50
65040;HTU21D;51606;45.000;38.612;2023-10-31T10:13:53;25.38;43.58
65040;HTU21D;51606;45.000;38.612;2023-10-31T10:16:32;25.23;43.65
65040;HTU21D;51606;45.000;38.612;2023-10-31T10:21:57;24.95;43.73
65040;HTU21D;51606;45.000;38.612;2023-10-31T10:24:24;24.80;43.86
65040;HTU21D;51606;45.000;38.612;2023-10-31T10:26:52;24.73;43.86
65040;HTU21D;51606;45.000;38.612;2023-10-31T10:29:18;24.65;43.90
65040;HTU21D;51606;45.000;38.612;2023-10-31T10:31:45;24.63;43.85
65040;HTU21D;51606;45.000;38.612;2023-10-31T10:34:16;24.58;43.75
65040;HTU21D;51606;45.000;38.612;2023-10-31T10:36:47;24.50;43.79
65040;HTU21D;51606;45.000;38.612;2023-10-31T10:39:19;24.49;43.81
65040;HTU21D;51606;45.000;38.612;2023-10-31T10:41:52;24.47;43.72
65040;HTU21D;51606;45.000;38.612;2023-10-31T10:46:56;24.43;43.75
65040;HTU21D;51606;45.000;38.612;2023-10-31T10:49:25;24.42;43.77
65040;HTU21D;51606;45.000;38.612;2023-10-31T10:51:59;24.41;43.77
65040;HTU21D;51606;45.000;38.612;2023-10-31T10:59:48;24.46;43.74
65040;HTU21D;51606;45.000;38.612;2023-10-31T11:02:18;24.45;43.85
65040;HTU21D;51606;45.000;38.612;2023-10-31T11:04:46;24.44;43.88
65040;HTU21D;51606;45.000;38.612;2023-10-31T11:07:14;24.45;43.90
65040;HTU21D;51606;45.000;38.612;2023-10-31T11:09:42;24.43;44.02
65040;HTU21D;51606;45.000;38.612;2023-10-31T11:12:10;24.45;44.06
65040;HTU21D;51606;45.000;38.612;2023-10-31T11:14:39;24.49;44.05
65040;HTU21D;51606;45.000;38.612;2023-10-31T11:17:24;24.55;44.00
65040;HTU21D;51606;45.000;38.612;2023-10-31T11:19:53;24.59;43.96
65040;HTU21D;51606;45.000;38.612;2023-10-31T11:22:20;24.58;43.99
65040;HTU21D;51606;45.000;38.612;2023-10-31T11:24:50;24.60;44.06
65040;HTU21D;51606;45.000;38.612;2023-10-31T11:27:18;24.61;44.10
65040;HTU21D;51606;45.000;38.612;2023-10-31T11:29:45;24.62;44.06
65040;HTU21D;51606;45.000;38.612;2023-10-31T11:32:11;24.60;44.02
65040;HTU21D;51606;45.000;38.612;2023-10-31T11:34:39;24.59;44.07
65040;HTU21D;51606;45.000;38.612;2023-10-31T11:40:14;24.60;44.09
65040;HTU21D;51606;45.000;38.612;2023-10-31T11:42:41;24.60;44.13
65040;HTU21D;51606;45.000;38.612;2023-10-31T11:45:08;24.58;44.13
65040;HTU21D;51606;45.000;38.612;2023-10-31T11:47:48;24.58;44.13
65040;HTU21D;51606;45.000;38.612;2023-10-31T11:50:15;24.55;44.16
65040;HTU21D;51606;45.000;38.612;2023-10-31T11:52:42;24.51;44.21
65040;HTU21D;51606;45.000;38.612;2023-10-31T11:55:13;24.48;44.22
65040;HTU21D;51606;45.000;38.612;2023-10-31T11:57:39;24.46;44.22
65040;HTU21D;51606;45.000;38.612;2023-10-31T12:00:06;24.45;44.27
65040;HTU21D;51606;45.000;38.612;2023-10-31T12:02:39;24.43;44.34
65040;HTU21D;51606;45.000;38.612;2023-10-31T12:05:11;24.43;44.33
65040;HTU21D;51606;45.000;38.612;2023-10-31T12:07:45;24.42;44.35
65040;HTU21D;51606;45.000;38.612;2023-10-31T12:10:12;24.40;44.45
65040;HTU21D;51606;45.000;38.612;2023-10-31T12:12:39;24.36;44.51
65040;HTU21D;51606;45.000;38.612;2023-10-31T12:15:09;24.34;44.51
65040;HTU21D;51606;45.000;38.612;2023-10-31T12:17:36;24.33;44.49
65040;HTU21D;51606;45.000;38.612;2023-10-31T12:20:07;24.33;44.33
65040;HTU21D;51606;45.000;38.612;2023-10-31T12:22:35;24.31;44.29
65040;HTU21D;51606;45.000;38.612;2023-10-31T12:25:09;24.27;44.27
65040;HTU21D;51606;45.000;38.612;2023-10-31T12:27:49;24.24;44.32
65040;HTU21D;51606;45.000;38.612;2023-10-31T12:30:18;24.16;44.44
65040;HTU21D;51606;45.000;38.612;2023-10-31T12:32:47;24.08;44.54
65040;HTU21D;51606;45.000;38.612;2023-10-31T12:35:21;24.02;44.64
65040;HTU21D;51606;45.000;38.612;2023-10-31T12:37:49;23.96;44.74
65040;HTU21D;51606;45.000;38.612;2023-10-31T12:40:21;23.89;44.93
65040;HTU21D;51606;45.000;38.612;2023-10-31T12:42:49;23.82;45.13
65040;HTU21D;51606;45.000;38.612;2023-10-31T12:45:17;23.71;45.28
65040;HTU21D;51606;45.000;38.612;2023-10-31T12:47:44;23.66;45.41
65040;HTU21D;51606;45.000;38.612;2023-10-31T12:50:16;23.60;45.56
65040;HTU21D;51606;45.000;38.612;2023-10-31T12:52:47;23.54;45.77
65040;HTU21D;51606;45.000;38.612;2023-10-31T12:55:15;23.46;45.93
65040;HTU21D;51606;45.000;38.612;2023-10-31T12:57:43;23.43;46.06
65040;HTU21D;51606;45.000;38.612;2023-10-31T13:00:11;23.39;46.15
65040;HTU21D;51606;45.000;38.612;2023-10-31T13:02:42;23.35;46.28
65040;HTU21D;51606;45.000;38.612;2023-10-31T13:05:51;23.27;46.44
65040;HTU21D;51606;45.000;38.612;2023-10-31T13:08:17;23.17;46.58
65040;HTU21D;51606;45.000;38.612;2023-10-31T13:10:44;23.10;46.71
65040;HTU21D;51606;45.000;38.612;2023-10-31T13:13:10;23.01;46.86
65040;HTU21D;51606;45.000;38.612;2023-10-31T13:15:38;22.92;46.99
65040;HTU21D;51606;45.000;38.612;2023-10-31T13:18:05;22.82;47.13
65040;HTU21D;51606;45.000;38.612;2023-10-31T13:20:32;22.72;47.31
65040;HTU21D;51606;45.000;38.612;2023-10-31T13:22:58;22.64;47.49
65040;HTU21D;51606;45.000;38.612;2023-10-31T13:25:28;22.51;47.70
65040;HTU21D;51606;45.000;38.612;2023-10-31T13:27:54;22.38;47.94
65040;HTU21D;51606;45.000;38.612;2023-10-31T13:30:24;22.23;48.22
65040;HTU21D;51606;45.000;38.612;2023-10-31T13:32:51;22.09;48.43
65040;HTU21D;51606;45.000;38.612;2023-10-31T13:35:19;21.95;48.66
65040;HTU21D;51606;45.000;38.612;2023-10-31T13:37:46;21.80;48.86
65040;HTU21D;51606;45.000;38.612;2023-10-31T13:40:13;21.66;49.08
65040;HTU21D;51606;45.000;38.612;2023-10-31T13:42:40;21.49;49.32
65040;HTU21D;51606;45.000;38.612;2023-10-31T13:45:07;21.34;49.53
65040;HTU21D;51606;45.000;38.612;2023-10-31T13:47:34;21.19;49.71
65040;HTU21D;51606;45.000;38.612;2023-10-31T13:50:01;21.05;49.88
65040;HTU21D;51606;45.000;38.612;2023-10-31T13:52:27;20.91;50.05
65040;HTU21D;51606;45.000;38.612;2023-10-31T13:54:54;20.77;50.21
65040;HTU21D;51606;45.000;38.612;2023-10-31T13:57:21;20.62;50.40
65040;HTU21D;51606;45.000;38.612;2023-10-31T13:59:49;20.46;50.64
65040;HTU21D;51606;45.000;38.612;2023-10-31T14:02:16;20.27;50.91
65040;HTU21D;51606;45.000;38.612;2023-10-31T14:04:43;20.09;51.21
65040;HTU21D;51606;45.000;38.612;2023-10-31T14:07:18;19.92;51.50
65040;HTU21D;51606;45.000;38.612;2023-10-31T14:09:46;19.75;51.66
65040;HTU21D;51606;45.000;38.612;2023-10-31T14:12:14;19.61;51.89
65040;HTU21D;51606;45.000;38.612;2023-10-31T14:14:41;19.45;52.16
65040;HTU21D;51606;45.000;38.612;2023-10-31T14:17:07;19.31;52.35
65040;HTU21D;51606;45.000;38.612;2023-10-31T14:19:34;19.23;52.52
65040;HTU21D;51606;45.000;38.612;2023-10-31T14:22:01;19.16;52.54
65040;HTU21D;51606;45.000;38.612;2023-10-31T14:24:28;19.01;52.69
65040;HTU21D;51606;45.000;38.612;2023-10-31T14:26:55;18.88;52.83
65040;HTU21D;51606;45.000;38.612;2023-10-31T14:29:23;18.74;53.00
65040;HTU21D;51606;45.000;38.612;2023-10-31T14:31:49;18.59;53.14
65040;HTU21D;51606;45.000;38.612;2023-10-31T14:34:16;18.47;53.24
65040;HTU21D;51606;45.000;38.612;2023-10-31T14:36:42;18.36;53.31
65040;HTU21D;51606;45.000;38.612;2023-10-31T14:39:09;18.23;53.43
65040;HTU21D;51606;45.000;38.612;2023-10-31T14:41:37;18.10;53.53
65040;HTU21D;51606;45.000;38.612;2023-10-31T14:44:04;17.99;53.62
65040;HTU21D;51606;45.000;38.612;2023-10-31T14:46:31;17.90;53.71
65040;HTU21D;51606;45.000;38.612;2023-10-31T14:48:58;17.83;53.80
65040;HTU21D;51606;45.000;38.612;2023-10-31T14:51:25;17.75;53.88
65040;HTU21D;51606;45.000;38.612;2023-10-31T14:53:52;17.66;53.96
65040;HTU21D;51606;45.000;38.612;2023-10-31T14:56:18;17.56;54.10
65040;HTU21D;51606;45.000;38.612;2023-10-31T14:58:45;17.54;54.12
65040;HTU21D;51606;45.000;38.612;2023-10-31T15:01:12;17.48;54.19
65040;HTU21D;51606;45.000;38.612;2023-10-31T15:03:40;17.37;54.30
65040;HTU21D;51606;45.000;38.612;2023-10-31T15:06:07;17.25;54.46
65040;HTU21D;51606;45.000;38.612;2023-10-31T15:08:36;17.16;54.59
65040;HTU21D;51606;45.000;38.612;2023-10-31T15:11:02;17.06;54.68
65040;HTU21D;51606;45.000;38.612;2023-10-31T15:13:29;16.99;54.80
65040;HTU21D;51606;45.000;38.612;2023-10-31T15:15:57;16.91;54.87
65040;HTU21D;51606;45.000;38.612;2023-10-31T15:18:23;16.85;54.94
65040;HTU21D;51606;45.000;38.612;2023-10-31T15:20:50;16.84;54.94
65040;HTU21D;51606;45.000;38.612;2023-10-31T15:23:16;16.84;54.89
65040;HTU21D;51606;45.000;38.612;2023-10-31T15:25:43;16.75;54.99
65040;HTU21D;51606;45.000;38.612;2023-10-31T15:28:10;16.65;55.18
65040;HTU21D;51606;45.000;38.612;2023-10-31T15:30:36;16.55;55.33
65040;HTU21D;51606;45.000;38.612;2023-10-31T15:33:03;16.48;55.43
65040;HTU21D;51606;45.000;38.612;2023-10-31T15:35:31;16.47;55.45
65040;HTU21D;51606;45.000;38.612;2023-10-31T15:37:58;16.42;55.46
65040;HTU21D;51606;45.000;38.612;2023-10-31T15:40:25;16.35;55.52
65040;HTU21D;51606;45.000;38.612;2023-10-31T15:42:51;16.30;55.58
65040;HTU21D;51606;45.000;38.612;2023-10-31T15:45:18;16.17;55.76
65040;HTU21D;51606;45.000;38.612;2023-10-31T15:47:44;16.05;55.98
65040;HTU21D;51606;45.000;38.612;2023-10-31T15:50:11;15.95;56.14
65040;HTU21D;51606;45.000;38.612;2023-10-31T15:52:38;15.87;56.22
65040;HTU21D;51606;45.000;38.612;2023-10-31T15:55:06;15.87;56.21
65040;HTU21D;51606;45.000;38.612;2023-10-31T15:57:33;15.87;56.14
65040;HTU21D;51606;45.000;38.612;2023-10-31T16:00:00;15.92;56.05
65040;HTU21D;51606;45.000;38.612;2023-10-31T16:02:27;16.02;55.94
65040;HTU21D;51606;45.000;38.612;2023-10-31T16:04:54;16.08;55.84
65040;HTU21D;51606;45.000;38.612;2023-10-31T16:07:21;16.18;55.78
65040;HTU21D;51606;45.000;38.612;2023-10-31T16:09:47;16.24;55.73
65040;HTU21D;51606;45.000;38.612;2023-10-31T16:12:14;16.21;55.78
65040;HTU21D;51606;45.000;38.612;2023-10-31T16:14:42;16.15;55.93
65040;HTU21D;51606;45.000;38.612;2023-10-31T16:17:08;16.07;56.06
65040;HTU21D;51606;45.000;38.612;2023-10-31T16:19:35;15.97;56.30
65040;HTU21D;51606;45.000;38.612;2023-10-31T16:22:02;15.90;56.40
65040;HTU21D;51606;45.000;38.612;2023-10-31T16:24:29;15.82;56.58
65040;HTU21D;51606;45.000;38.612;2023-10-31T16:26:56;15.78;56.61
65040;HTU21D;51606;45.000;38.612;2023-10-31T16:29:23;15.72;56.68
65040;HTU21D;51606;45.000;38.612;2023-10-31T16:31:49;15.66;56.80
65040;HTU21D;51606;45.000;38.612;2023-10-31T16:34:16;15.59;56.89
65040;HTU21D;51606;45.000;38.612;2023-10-31T16:36:47;15.44;57.12
65040;HTU21D;51606;45.000;38.612;2023-10-31T16:39:14;15.28;57.37
65040;HTU21D;51606;45.000;38.612;2023-10-31T16:41:42;15.10;57.61
65040;HTU21D;51606;45.000;38.612;2023-10-31T16:44:09;14.83;57.96
65040;HTU21D;51606;45.000;38.612;2023-10-31T16:46:42;14.62;58.32
65040;HTU21D;51606;45.000;38.612;2023-10-31T16:49:09;14.40;58.53
65040;HTU21D;51606;45.000;38.612;2023-10-31T16:51:36;14.22;58.77
65040;HTU21D;51606;45.000;38.612;2023-10-31T16:54:03;14.06;58.92
65040;HTU21D;51606;45.000;38.612;2023-10-31T16:56:30;13.92;59.05
65040;HTU21D;51606;45.000;38.612;2023-10-31T16:58:57;13.81;59.19
65040;HTU21D;51606;45.000;38.612;2023-10-31T17:01:23;13.70;59.25
65040;HTU21D;51606;45.000;38.612;2023-10-31T17:03:50;13.60;59.33
65040;HTU21D;51606;45.000;38.612;2023-10-31T17:06:17;13.48;59.41
65040;HTU21D;51606;45.000;38.612;2023-10-31T17:08:45;13.43;59.44
65040;HTU21D;51606;45.000;38.612;2023-10-31T17:11:11;13.37;59.35
65040;HTU21D;51606;45.000;38.612;2023-10-31T17:13:38;13.34;59.30
65040;HTU21D;51606;45.000;38.612;2023-10-31T17:16:05;13.32;59.28
65040;HTU21D;51606;45.000;38.612;2023-10-31T17:18:34;13.27;59.27
65040;HTU21D;51606;45.000;38.612;2023-10-31T17:21:03;13.21;59.37
65040;HTU21D;51606;45.000;38.612;2023-10-31T17:23:30;13.17;59.44
65040;HTU21D;51606;45.000;38.612;2023-10-31T17:25:57;13.08;59.54
65040;HTU21D;51606;45.000;38.612;2023-10-31T17:28:24;13.00;59.71
65040;HTU21D;51606;45.000;38.612;2023-10-31T17:30:51;12.93;59.86
65040;HTU21D;51606;45.000;38.612;2023-10-31T17:33:17;12.84;59.99
65040;HTU21D;51606;45.000;38.612;2023-10-31T17:35:44;12.74;60.15
65040;HTU21D;51606;45.000;38.612;2023-10-31T17:38:11;12.67;60.29
65040;HTU21D;51606;45.000;38.612;2023-10-31T17:40:37;12.62;60.36
65040;HTU21D;51606;45.000;38.612;2023-10-31T17:43:04;12.53;60.47
65040;HTU21D;51606;45.000;38.612;2023-10-31T17:45:31;12.49;60.55
65040;HTU21D;51606;45.000;38.612;2023-10-31T17:47:58;12.43;60.60
65040;HTU21D;51606;45.000;38.612;2023-10-31T17:50:25;12.37;60.73
65040;HTU21D;51606;45.000;38.612;2023-10-31T17:52:52;12.30;60.85